createdAt,value
2022-12-04T05:34:59.784Z,978.50
2022-12-04T05:35:49.594Z,978.80
2022-12-04T05:36:20.762Z,978.80
2022-12-04T05:36:51.817Z,978.80
2022-12-04T05:37:26.672Z,978.80
2022-12-04T05:38:19.285Z,979.00
2022-12-04T05:38:24.935Z,979.00
2022-12-04T05:38:56.685Z,978.90
2022-12-04T05:39:27.423Z,978.90
2022-12-04T05:40:05.112Z,978.70
2022-12-04T05:40:30.020Z,978.70
2022-12-04T05:41:01.830Z,978.60
2022-12-04T05:41:31.367Z,978.60
2022-12-04T05:42:02.936Z,978.80
2022-12-04T05:42:32.460Z,978.80
2022-12-04T05:43:03.572Z,978.60
2022-12-04T05:43:35.609Z,978.60
2022-12-04T05:44:05.489Z,978.50
2022-12-04T05:44:36.660Z,978.50
2022-12-04T05:45:08.577Z,978.70
2022-12-04T05:45:38.100Z,978.70
2022-12-04T05:46:28.915Z,978.29
2022-12-04T05:46:40.230Z,978.29
2022-12-04T05:47:14.636Z,978.70
2022-12-04T05:47:44.881Z,978.70
2022-12-04T05:48:14.527Z,978.60
2022-12-04T05:48:46.080Z,978.60
2022-12-04T05:49:16.484Z,978.50
2022-12-04T05:49:47.178Z,978.50
2022-12-04T05:50:19.399Z,978.70
2022-12-04T05:50:49.654Z,978.70
2022-12-04T05:51:19.391Z,978.60
2022-12-04T05:51:51.275Z,978.70
2022-12-04T05:52:21.772Z,978.70
2022-12-04T05:52:52.873Z,978.60
2022-12-04T05:53:25.497Z,978.60
2022-12-04T05:53:55.798Z,978.39
2022-12-04T05:54:26.180Z,978.39
2022-12-04T05:54:56.737Z,978.50
2022-12-04T05:55:28.001Z,978.50
2022-12-04T05:56:16.751Z,978.50
2022-12-04T05:56:29.641Z,978.50
2022-12-04T05:57:00.976Z,978.50
2022-12-04T05:57:31.610Z,978.50
2022-12-04T05:58:02.842Z,978.60
2022-12-04T05:58:34.310Z,978.60
2022-12-04T05:59:05.804Z,978.60
2022-12-04T05:59:36.841Z,978.60
2022-12-04T06:00:08.255Z,978.70
2022-12-04T06:00:39.780Z,978.70
2022-12-04T06:01:08.486Z,978.39
2022-12-04T06:01:38.908Z,978.39
2022-12-04T06:02:10.465Z,978.70
2022-12-04T06:02:43.234Z,978.70
2022-12-04T06:03:13.741Z,978.60
2022-12-04T06:03:44.990Z,978.60
2022-12-04T06:04:15.734Z,978.60
2022-12-04T06:04:46.085Z,978.60
2022-12-04T06:05:17.354Z,978.60
2022-12-04T06:05:47.915Z,978.60
2022-12-04T06:06:21.776Z,978.60
2022-12-04T06:06:49.576Z,978.70
2022-12-04T06:07:20.318Z,978.70
2022-12-04T06:07:51.075Z,978.60
2022-12-04T06:08:22.642Z,978.60
2022-12-04T06:08:54.940Z,978.39
2022-12-04T06:09:25.868Z,978.39
2022-12-04T06:09:56.722Z,978.60
2022-12-04T06:10:27.803Z,978.60
2022-12-04T06:10:58.390Z,978.50
2022-12-04T06:11:29.997Z,978.50
2022-12-04T06:11:59.505Z,978.50
2022-12-04T06:12:31.538Z,978.50
2022-12-04T06:13:01.967Z,978.60
2022-12-04T06:13:33.480Z,978.60
2022-12-04T06:14:04.691Z,978.50
2022-12-04T06:14:39.492Z,978.50
2022-12-04T06:15:07.494Z,978.60
2022-12-04T06:15:37.194Z,978.60
2022-12-04T06:16:08.105Z,978.60
2022-12-04T06:16:38.476Z,978.60
2022-12-04T06:17:10.801Z,978.19
2022-12-04T06:17:44.264Z,978.19
2022-12-04T06:18:10.971Z,978.60
2022-12-04T06:18:51.717Z,978.60
2022-12-04T06:19:14.000Z,978.60
2022-12-04T06:19:53.298Z,978.39
2022-12-04T06:20:19.372Z,978.39
2022-12-04T06:20:47.683Z,978.39
2022-12-04T06:21:17.644Z,978.29
2022-12-04T06:21:49.123Z,978.29
2022-12-04T06:22:18.809Z,978.39
2022-12-04T06:22:49.429Z,978.19
2022-12-04T06:23:21.368Z,978.19
2022-12-04T06:23:52.524Z,978.39
2022-12-04T06:24:23.348Z,978.39
2022-12-04T06:24:55.372Z,978.29
2022-12-04T06:25:26.449Z,978.29
2022-12-04T06:26:00.854Z,978.29
2022-12-04T06:26:27.783Z,978.29
2022-12-04T06:27:26.117Z,978.50
2022-12-04T06:27:59.891Z,978.50
2022-12-04T06:29:08.139Z,978.60
2022-12-04T06:29:33.256Z,978.60
2022-12-04T06:30:04.668Z,978.29
2022-12-04T06:30:37.156Z,978.29
2022-12-04T06:31:08.438Z,978.50
2022-12-04T06:31:37.906Z,978.50
2022-12-04T06:32:08.289Z,978.60
2022-12-04T06:32:39.733Z,978.60
2022-12-04T06:33:10.324Z,978.50
2022-12-04T06:33:41.000Z,978.50
2022-12-04T06:47:12.882Z,978.80
2022-12-04T06:48:11.213Z,978.80
2022-12-04T07:14:31.887Z,978.80
2022-12-04T07:15:07.047Z,978.90
2022-12-04T07:15:33.146Z,978.90
2022-12-04T07:16:03.538Z,978.90
2022-12-04T07:16:54.292Z,978.90
2022-12-04T07:17:19.079Z,978.90
2022-12-04T07:17:36.591Z,978.90
2022-12-04T07:18:11.143Z,978.90
2022-12-04T07:18:37.781Z,978.90
2022-12-04T07:19:11.541Z,978.90
2022-12-04T07:19:47.500Z,978.90
2022-12-04T07:20:12.307Z,978.80
2022-12-04T07:20:45.696Z,978.80
2022-12-04T07:21:12.677Z,978.70
2022-12-04T07:21:44.856Z,978.70
2022-12-04T07:22:21.286Z,978.80
2022-12-04T07:22:47.695Z,978.80
2022-12-04T07:23:26.255Z,978.70
2022-12-04T07:23:51.425Z,978.80
2022-12-04T07:24:20.113Z,978.80
2022-12-04T07:24:52.422Z,978.90
2022-12-04T07:25:25.525Z,978.90
2022-12-04T07:25:51.949Z,979.00
2022-12-04T07:26:24.325Z,979.00
2022-12-04T07:26:55.810Z,978.90
2022-12-04T07:27:26.330Z,978.90
2022-12-04T07:27:55.715Z,979.00
2022-12-04T07:28:28.023Z,979.00
2022-12-04T07:28:58.887Z,979.00
2022-12-04T07:29:49.942Z,979.00
2022-12-04T07:30:12.554Z,978.90
2022-12-04T07:30:36.162Z,978.90
2022-12-04T07:32:47.438Z,978.80
2022-12-04T07:33:14.297Z,978.70
2022-12-04T07:33:49.486Z,978.70
2022-12-04T07:34:08.585Z,978.60
2022-12-04T07:34:42.535Z,978.60
2022-12-04T07:35:15.841Z,978.70
2022-12-04T07:36:35.775Z,978.70
2022-12-04T07:36:44.951Z,978.80
2022-12-04T07:37:14.800Z,978.70
2022-12-04T07:37:53.411Z,978.70
2022-12-04T07:38:19.733Z,978.80
2022-12-04T07:38:48.879Z,978.80
2022-12-04T07:39:19.375Z,978.60
2022-12-04T07:39:50.800Z,978.80
2022-12-04T07:40:37.261Z,978.80
2022-12-04T07:40:57.962Z,978.90
2022-12-04T07:41:26.684Z,978.90
2022-12-04T07:41:55.771Z,978.80
2022-12-04T07:42:27.397Z,978.80
2022-12-04T07:43:01.527Z,978.80
2022-12-04T07:43:34.463Z,978.80
2022-12-04T07:44:05.966Z,978.70
2022-12-04T07:44:30.445Z,978.70
2022-12-04T07:48:22.122Z,978.60
2022-12-04T07:48:37.063Z,978.90
2022-12-04T07:49:08.109Z,978.80
2022-12-04T07:49:46.783Z,978.80
2022-12-04T07:50:12.977Z,978.80
2022-12-04T07:50:50.713Z,978.90
2022-12-04T07:51:51.027Z,978.90
2022-12-04T07:52:22.126Z,978.80
2022-12-04T07:52:59.751Z,978.80
2022-12-04T07:53:17.282Z,978.80
2022-12-04T07:53:46.263Z,978.80
2022-12-04T07:55:35.276Z,978.90
2022-12-04T07:55:51.825Z,978.90
2022-12-04T07:56:23.083Z,978.90
2022-12-04T07:56:53.666Z,979.00
2022-12-04T07:57:24.635Z,979.00
2022-12-04T07:58:42.949Z,978.90
2022-12-04T07:59:20.065Z,978.90
2022-12-04T07:59:30.286Z,978.90
2022-12-04T08:00:00.213Z,978.90
2022-12-04T08:03:49.166Z,978.90
2022-12-04T08:04:14.742Z,978.90
2022-12-04T08:05:09.815Z,978.90
2022-12-04T08:05:38.957Z,979.00
2022-12-04T08:09:47.351Z,979.00
2022-12-04T08:10:53.291Z,979.00
2022-12-04T08:11:21.583Z,979.00
2022-12-04T08:11:52.456Z,978.90
2022-12-04T08:12:24.397Z,978.90
2022-12-04T08:12:54.271Z,978.70
2022-12-04T08:13:24.469Z,978.70
2022-12-04T08:13:55.916Z,978.80
2022-12-04T08:14:26.118Z,978.80
2022-12-04T08:15:17.108Z,978.90
2022-12-04T08:15:30.079Z,978.90
2022-12-04T08:16:01.958Z,978.80
2022-12-04T08:16:32.735Z,978.80
2022-12-04T08:17:01.859Z,978.80
2022-12-04T08:17:33.724Z,978.80
2022-12-04T08:18:04.676Z,978.70
2022-12-04T08:18:37.389Z,978.70
2022-12-04T08:19:06.204Z,978.90
2022-12-04T08:19:36.642Z,978.90
2022-12-04T08:20:14.391Z,978.80
2022-12-04T08:20:44.089Z,978.80
2022-12-04T08:21:11.656Z,978.90
2022-12-04T08:21:40.894Z,978.90
2022-12-04T08:22:11.135Z,978.70
2022-12-04T08:23:00.422Z,978.80
2022-12-04T08:23:15.651Z,978.80
2022-12-04T08:23:50.259Z,978.80
2022-12-04T08:24:24.545Z,978.80
2022-12-04T08:25:05.556Z,978.90
2022-12-04T08:25:18.883Z,978.90
2022-12-04T08:25:49.015Z,978.60
2022-12-04T08:26:39.174Z,978.60
2022-12-04T08:26:51.651Z,978.70
2022-12-04T08:27:21.927Z,978.70
2022-12-04T08:28:09.595Z,978.90
2022-12-04T08:28:23.117Z,978.90
2022-12-04T08:28:54.649Z,978.80
2022-12-04T08:29:25.555Z,978.80
2022-12-04T08:29:57.461Z,978.90
2022-12-04T08:31:38.746Z,978.90
2022-12-04T08:32:01.119Z,978.90
2022-12-04T08:32:31.937Z,978.90
2022-12-04T08:33:02.541Z,978.80
2022-12-04T08:33:34.165Z,978.80
2022-12-04T08:34:12.997Z,978.70
2022-12-04T08:34:55.738Z,978.70
2022-12-04T08:35:49.761Z,978.70
2022-12-04T08:36:10.373Z,978.70
2022-12-04T08:36:40.255Z,978.70
2022-12-04T08:37:10.621Z,978.60
2022-12-04T08:37:41.462Z,978.60
2022-12-04T08:38:12.632Z,978.80
2022-12-04T08:38:43.227Z,978.80
2022-12-04T08:39:30.067Z,978.60
2022-12-04T08:39:45.659Z,978.60
2022-12-04T08:40:18.251Z,978.60
2022-12-04T08:40:48.544Z,978.60
2022-12-04T08:41:21.308Z,978.39
2022-12-04T08:41:53.906Z,978.70
2022-12-04T08:42:20.430Z,978.70
2022-12-04T08:42:51.430Z,978.60
2022-12-04T08:43:22.330Z,978.60
2022-12-04T08:43:53.305Z,978.50
2022-12-04T08:44:42.950Z,978.50
2022-12-04T08:44:55.942Z,978.70
2022-12-04T08:45:32.616Z,978.70
2022-12-04T08:45:58.278Z,978.70
2022-12-04T08:46:30.245Z,978.70
2022-12-04T08:47:02.427Z,978.50
2022-12-04T08:47:30.812Z,978.50
2022-12-04T08:48:01.576Z,978.70
2022-12-04T08:48:32.297Z,978.70
2022-12-04T08:49:03.418Z,978.70
2022-12-04T08:49:58.326Z,978.70
2022-12-04T08:50:32.143Z,978.90
2022-12-04T08:50:36.826Z,978.90
2022-12-04T08:51:08.775Z,978.60
2022-12-04T08:51:38.771Z,978.60
2022-12-04T08:52:09.337Z,978.80
2022-12-04T08:52:40.088Z,978.80
2022-12-04T08:53:11.299Z,978.70
2022-12-04T08:53:42.731Z,978.70
2022-12-04T08:54:50.772Z,978.70
2022-12-04T08:57:18.818Z,978.70
2022-12-04T08:57:31.469Z,978.60
2022-12-04T08:58:01.591Z,978.60
2022-12-04T08:58:21.679Z,978.60
2022-12-04T08:58:52.371Z,978.60
2022-12-04T08:59:23.250Z,978.60
2022-12-04T08:59:54.880Z,978.70
2022-12-04T09:00:26.704Z,978.70
2022-12-04T09:00:56.499Z,979.00
2022-12-04T09:01:37.581Z,979.00
2022-12-04T09:02:00.042Z,978.60
2022-12-04T09:02:31.139Z,978.60
2022-12-04T09:03:00.618Z,978.60
2022-12-04T09:03:32.027Z,978.60
2022-12-04T09:04:38.626Z,978.80
2022-12-04T09:05:20.550Z,978.80
2022-12-04T09:05:37.262Z,978.80
2022-12-04T09:06:06.499Z,978.70
2022-12-04T09:06:39.034Z,978.70
2022-12-04T09:07:10.538Z,978.70
2022-12-04T09:07:58.195Z,978.70
2022-12-04T09:08:12.202Z,978.70
2022-12-04T09:08:45.659Z,978.70
2022-12-04T09:09:13.942Z,978.70
2022-12-04T09:09:48.203Z,978.70
2022-12-04T09:10:14.849Z,978.80
2022-12-04T09:11:01.284Z,978.80
2022-12-04T09:11:16.535Z,978.60
2022-12-04T09:11:55.528Z,978.60
2022-12-04T09:12:21.505Z,978.80
2022-12-04T09:12:52.657Z,978.70
2022-12-04T09:13:23.532Z,978.70
2022-12-04T09:13:53.021Z,978.80
2022-12-04T09:14:23.630Z,978.80
2022-12-04T09:14:55.007Z,978.70
2022-12-04T09:15:43.897Z,978.70
2022-12-04T09:15:56.610Z,978.70
2022-12-04T09:16:26.590Z,978.70
2022-12-04T09:16:57.983Z,978.50
2022-12-04T09:17:31.416Z,978.50
2022-12-04T09:18:00.223Z,978.70
2022-12-04T09:18:32.781Z,978.70
2022-12-04T09:19:02.829Z,978.60
2022-12-04T09:19:33.482Z,978.60
2022-12-04T09:20:05.231Z,978.70
2022-12-04T09:20:35.921Z,978.70
2022-12-04T09:21:06.285Z,978.80
2022-12-04T09:21:37.921Z,978.80
2022-12-04T09:22:09.781Z,978.60
2022-12-04T09:22:57.947Z,978.60
2022-12-04T09:23:11.095Z,978.80
2022-12-04T09:23:42.470Z,978.80
2022-12-04T09:24:31.224Z,978.80
2022-12-04T09:24:44.772Z,978.80
2022-12-04T09:25:14.840Z,978.50
2022-12-04T09:25:46.066Z,978.50
2022-12-04T09:26:16.147Z,978.70
2022-12-04T09:26:49.298Z,978.70
2022-12-04T09:27:52.126Z,978.70
2022-12-04T09:28:21.887Z,978.70
2022-12-04T09:28:53.900Z,978.60
2022-12-04T09:29:24.029Z,978.60
2022-12-04T09:29:55.040Z,978.70
2022-12-04T09:30:26.800Z,978.70
2022-12-04T09:30:56.124Z,978.90
2022-12-04T09:31:27.028Z,978.90
2022-12-04T09:31:57.413Z,978.70
2022-12-04T09:32:28.579Z,978.70
2022-12-04T09:33:17.156Z,978.80
2022-12-04T09:33:32.641Z,978.80
2022-12-04T09:34:03.781Z,978.60
2022-12-04T09:34:33.072Z,978.60
2022-12-04T09:35:05.299Z,978.60
2022-12-04T09:35:41.249Z,978.60
2022-12-04T09:36:05.924Z,978.70
2022-12-04T09:36:36.082Z,978.70
2022-12-04T09:37:06.499Z,978.70
2022-12-04T09:37:37.713Z,978.70
2022-12-04T09:38:10.887Z,978.70
2022-12-04T09:38:41.654Z,978.70
2022-12-04T09:39:11.978Z,978.80
2022-12-04T09:39:42.834Z,978.80
2022-12-04T09:40:14.699Z,978.70
2022-12-04T09:40:45.295Z,978.70
2022-12-04T09:41:16.213Z,978.80
2022-12-04T09:41:46.263Z,978.80
2022-12-04T09:42:17.882Z,978.70
2022-12-04T09:42:47.949Z,978.70
2022-12-04T09:43:21.008Z,978.70
2022-12-04T09:43:52.256Z,978.70
2022-12-04T09:44:21.581Z,978.70
2022-12-04T09:44:54.629Z,978.70
2022-12-04T09:45:26.485Z,978.70
2022-12-04T09:45:54.770Z,978.70
2022-12-04T09:46:25.268Z,978.70
2022-12-04T09:47:26.575Z,978.70
2022-12-04T09:47:57.582Z,978.60
2022-12-04T09:48:29.085Z,978.60
2022-12-04T09:49:02.103Z,978.50
2022-12-04T09:49:33.602Z,978.50
2022-12-04T09:50:04.060Z,978.70
2022-12-04T09:50:52.589Z,978.70
2022-12-04T09:51:06.138Z,978.70
2022-12-04T09:51:35.649Z,978.70
2022-12-04T09:52:05.923Z,978.70
2022-12-04T09:52:37.432Z,978.70
2022-12-04T09:53:08.043Z,978.80
2022-12-04T09:53:40.368Z,978.80
2022-12-04T09:54:42.230Z,978.90
2022-12-04T09:55:14.388Z,978.70
2022-12-04T09:55:45.320Z,978.70
2022-12-04T09:56:14.830Z,978.60
2022-12-04T09:56:45.963Z,978.60
2022-12-04T09:57:16.669Z,978.70
2022-12-04T09:57:48.450Z,978.70
2022-12-04T09:58:18.433Z,978.70
2022-12-04T09:58:49.269Z,978.70
2022-12-04T09:59:38.397Z,978.70
2022-12-04T09:59:53.120Z,978.70
2022-12-04T10:00:26.677Z,978.70
2022-12-04T10:00:54.081Z,978.60
2022-12-04T10:01:25.749Z,978.60
2022-12-04T10:01:56.396Z,978.60
2022-12-04T10:02:27.286Z,978.60
2022-12-04T10:02:57.989Z,978.60
2022-12-04T10:03:29.197Z,978.60
2022-12-04T10:04:06.102Z,978.70
2022-12-04T10:04:31.433Z,978.70
2022-12-04T10:05:03.771Z,978.60
2022-12-04T10:05:33.412Z,978.60
2022-12-04T10:06:04.476Z,978.70
2022-12-04T10:06:36.541Z,978.70
2022-12-04T10:07:06.015Z,978.80
2022-12-04T10:07:36.408Z,978.80
2022-12-04T10:08:07.114Z,978.70
2022-12-04T10:08:38.053Z,978.70
2022-12-04T10:09:08.936Z,978.70
2022-12-04T10:09:40.184Z,978.70
2022-12-04T10:10:14.002Z,978.60
2022-12-04T10:10:43.008Z,978.60
2022-12-04T10:11:14.181Z,978.70
2022-12-04T10:11:44.855Z,978.70
2022-12-04T10:12:15.866Z,978.50
2022-12-04T10:12:47.363Z,978.50
2022-12-04T10:13:17.364Z,978.50
2022-12-04T10:13:48.485Z,978.50
2022-12-04T10:14:19.740Z,978.50
2022-12-04T10:14:50.567Z,978.60
2022-12-04T10:15:26.197Z,978.60
2022-12-04T10:15:55.026Z,978.60
2022-12-04T10:16:23.885Z,978.60
2022-12-04T10:16:55.686Z,978.60
2022-12-04T10:17:32.227Z,978.60
2022-12-04T10:17:57.069Z,978.70
2022-12-04T10:18:28.051Z,978.70
2022-12-04T10:18:58.256Z,978.50
2022-12-04T10:19:30.151Z,978.50
2022-12-04T10:20:01.667Z,978.50
2022-12-04T10:20:32.681Z,978.50
2022-12-04T10:21:03.270Z,978.39
2022-12-04T10:21:35.909Z,978.39
2022-12-04T10:22:06.455Z,978.39
2022-12-04T10:22:37.349Z,978.39
2022-12-04T10:23:12.109Z,978.50
2022-12-04T10:23:38.147Z,978.50
2022-12-04T10:24:09.197Z,978.39
2022-12-04T10:24:39.552Z,978.39
2022-12-04T10:25:11.227Z,978.39
2022-12-04T10:25:43.401Z,978.39
2022-12-04T10:26:13.102Z,978.39
2022-12-04T10:27:01.184Z,978.50
2022-12-04T10:27:16.106Z,978.50
2022-12-04T10:27:45.888Z,978.50
2022-12-04T10:28:16.666Z,978.60
2022-12-04T10:28:51.969Z,978.60
2022-12-04T10:29:19.091Z,978.50
2022-12-04T10:29:51.042Z,978.50
2022-12-04T10:30:23.332Z,978.50
2022-12-04T10:31:09.303Z,978.60
2022-12-04T10:31:26.059Z,978.60
2022-12-04T10:31:55.942Z,978.70
2022-12-04T10:32:24.720Z,978.70
2022-12-04T10:32:57.210Z,978.80
2022-12-04T10:33:26.748Z,978.80
2022-12-04T10:34:13.902Z,978.60
2022-12-04T10:34:29.816Z,978.60
2022-12-04T10:34:59.662Z,978.60
2022-12-04T10:35:30.514Z,978.60
2022-12-04T10:36:18.459Z,978.90
2022-12-04T10:36:32.913Z,978.90
2022-12-04T10:37:04.788Z,978.70
2022-12-04T10:37:35.988Z,978.70
2022-12-04T10:38:06.244Z,978.70
2022-12-04T10:38:37.097Z,978.70
2022-12-04T10:39:38.947Z,978.60
2022-12-04T10:40:10.219Z,978.60
2022-12-04T10:40:39.893Z,978.60
2022-12-04T10:41:15.088Z,978.70
2022-12-04T10:41:43.898Z,978.70
2022-12-04T10:42:14.884Z,978.60
2022-12-04T10:42:46.652Z,978.60
2022-12-04T10:43:17.552Z,978.70
2022-12-04T10:43:48.246Z,978.70
2022-12-04T10:44:18.448Z,978.60
2022-12-04T10:44:48.753Z,978.60
2022-12-04T10:45:20.926Z,978.70
2022-12-04T10:45:50.203Z,978.80
2022-12-04T10:46:22.924Z,978.80
2022-12-04T10:46:53.738Z,978.70
2022-12-04T10:47:24.807Z,978.70
2022-12-04T10:47:55.695Z,978.60
2022-12-04T10:48:25.987Z,978.60
2022-12-04T10:48:58.269Z,978.60
2022-12-04T10:49:28.629Z,978.60
2022-12-04T10:49:58.232Z,978.70
2022-12-04T10:50:30.416Z,978.70
2022-12-04T10:51:00.688Z,978.60
2022-12-04T10:51:31.825Z,978.60
2022-12-04T10:52:03.336Z,978.50
2022-12-04T10:52:34.258Z,978.50
2022-12-04T10:53:09.504Z,978.60
2022-12-04T10:53:38.028Z,978.60
2022-12-04T10:54:08.339Z,978.70
2022-12-04T10:54:39.736Z,978.70
2022-12-04T10:55:10.808Z,978.70
2022-12-04T10:55:39.702Z,978.70
2022-12-04T10:56:10.224Z,978.50
2022-12-04T10:56:41.961Z,978.50
2022-12-04T10:57:13.930Z,978.29
2022-12-04T10:57:44.142Z,978.29
2022-12-04T10:58:15.792Z,978.60
2022-12-04T10:58:46.985Z,978.60
2022-12-04T10:59:17.705Z,978.39
2022-12-04T10:59:47.873Z,978.39
2022-12-04T11:00:19.740Z,978.39
2022-12-04T11:00:49.223Z,978.39
2022-12-04T11:01:31.372Z,978.39
2022-12-04T11:01:52.206Z,978.39
2022-12-04T11:02:23.537Z,978.39
2022-12-04T11:02:53.960Z,978.19
2022-12-04T11:03:27.469Z,978.19
2022-12-04T11:03:55.155Z,978.60
2022-12-04T11:04:27.096Z,978.60
2022-12-04T11:04:57.451Z,978.50
2022-12-04T11:05:28.604Z,978.50
2022-12-04T11:06:06.216Z,978.60
2022-12-04T11:06:32.316Z,978.60
2022-12-04T11:07:02.541Z,978.39
2022-12-04T11:07:33.157Z,978.39
2022-12-04T11:08:04.662Z,978.39
2022-12-04T11:08:35.499Z,978.39
2022-12-04T11:09:06.824Z,978.60
2022-12-04T11:09:39.332Z,978.60
2022-12-04T11:10:09.424Z,978.50
2022-12-04T11:10:40.568Z,978.50
2022-12-04T11:11:10.609Z,978.80
2022-12-04T11:11:41.889Z,978.80
2022-12-04T11:12:12.532Z,978.29
2022-12-04T11:12:43.509Z,978.29
2022-12-04T11:13:44.770Z,978.60
2022-12-04T11:14:16.331Z,978.60
2022-12-04T11:14:47.627Z,978.60
2022-12-04T11:15:19.727Z,978.50
2022-12-04T11:15:49.797Z,978.50
2022-12-04T11:16:21.830Z,978.50
2022-12-04T11:16:52.479Z,978.50
2022-12-04T11:17:23.032Z,978.50
2022-12-04T11:17:53.909Z,978.50
2022-12-04T11:18:25.088Z,978.50
2022-12-04T11:18:55.521Z,978.39
2022-12-04T11:19:26.925Z,978.39
2022-12-04T11:19:57.256Z,978.29
2022-12-04T11:20:29.258Z,978.29
2022-12-04T11:21:00.838Z,978.19
2022-12-04T11:21:31.756Z,978.19
2022-12-04T11:22:02.966Z,978.29
2022-12-04T11:22:33.119Z,978.29
2022-12-04T11:23:03.728Z,978.19
2022-12-04T11:23:35.971Z,978.19
2022-12-04T11:24:05.309Z,978.29
2022-12-04T11:24:37.182Z,978.29
2022-12-04T11:25:07.753Z,978.29
2022-12-04T11:25:38.757Z,978.29
2022-12-04T11:26:27.321Z,978.39
2022-12-04T11:26:41.626Z,978.39
2022-12-04T11:27:13.516Z,978.60
2022-12-04T11:27:43.119Z,978.60
2022-12-04T11:28:33.657Z,978.50
2022-12-04T11:28:44.840Z,978.50
2022-12-04T11:29:15.771Z,978.39
2022-12-04T11:29:47.627Z,978.39
2022-12-04T11:30:18.834Z,978.29
2022-12-04T11:31:05.306Z,978.39
2022-12-04T11:31:21.870Z,978.39
2022-12-04T11:31:51.171Z,978.39
2022-12-04T11:32:23.211Z,978.39
2022-12-04T11:32:53.382Z,978.29
2022-12-04T11:33:23.346Z,978.29
2022-12-04T11:33:54.674Z,978.39
2022-12-04T11:34:24.214Z,978.39
2022-12-04T11:34:56.665Z,978.29
2022-12-04T11:35:26.876Z,978.29
2022-12-04T11:35:57.922Z,978.29
2022-12-04T11:36:28.594Z,978.29
2022-12-04T11:36:59.427Z,978.19
2022-12-04T11:38:01.706Z,978.50
2022-12-04T11:38:32.932Z,978.50
2022-12-04T11:39:04.416Z,978.50
2022-12-04T11:40:06.022Z,978.29
2022-12-04T11:40:37.903Z,978.29
2022-12-04T11:41:08.073Z,978.29
2022-12-04T11:41:38.880Z,978.29
2022-12-04T11:42:12.110Z,978.09
2022-12-04T11:42:41.857Z,978.09
2022-12-04T11:43:14.332Z,978.39
2022-12-04T11:43:44.579Z,978.39
2022-12-04T11:44:15.534Z,978.29
2022-12-04T11:44:46.457Z,978.29
2022-12-04T11:45:17.553Z,978.29
2022-12-04T11:45:47.944Z,978.29
2022-12-04T11:46:18.185Z,978.09
2022-12-04T11:46:49.181Z,978.19
2022-12-04T11:47:22.385Z,978.19
2022-12-04T11:47:52.162Z,978.09
2022-12-04T11:48:24.195Z,978.09
2022-12-04T11:48:53.794Z,978.29
2022-12-04T11:49:44.048Z,978.29
2022-12-04T11:49:54.578Z,978.19
2022-12-04T11:50:28.346Z,978.19
2022-12-04T11:50:58.226Z,978.19
2022-12-04T11:51:28.812Z,978.19
2022-12-04T11:52:00.716Z,978.09
2022-12-04T11:52:31.857Z,978.09
2022-12-04T11:53:02.287Z,978.19
2022-12-04T11:53:33.871Z,978.19
2022-12-04T11:54:34.546Z,978.19
2022-12-04T11:55:05.494Z,978.09
2022-12-04T11:55:36.822Z,978.09
2022-12-04T11:56:12.797Z,978.09
2022-12-04T11:56:38.760Z,978.09
2022-12-04T11:57:12.040Z,977.89
2022-12-04T11:57:40.665Z,977.89
2022-12-04T11:58:13.619Z,978.09
2022-12-04T11:58:43.542Z,978.09
2022-12-04T11:59:14.640Z,978.19
2022-12-04T11:59:44.851Z,978.19
2022-12-04T12:00:17.035Z,977.99
2022-12-04T12:00:46.043Z,977.99
2022-12-04T12:01:17.732Z,977.89
2022-12-04T12:01:47.454Z,977.89
2022-12-04T12:02:19.017Z,977.89
2022-12-04T12:02:49.878Z,977.99
2022-12-04T12:03:21.149Z,977.99
2022-12-04T12:03:53.814Z,978.09
2022-12-04T12:04:26.713Z,978.09
2022-12-04T12:04:56.327Z,978.09
2022-12-04T12:05:26.502Z,978.09
2022-12-04T12:05:56.614Z,977.99
2022-12-04T12:06:26.950Z,977.99
2022-12-04T12:06:58.113Z,978.09
2022-12-04T12:07:46.707Z,978.09
2022-12-04T12:08:02.354Z,977.78
2022-12-04T12:08:31.658Z,977.78
2022-12-04T12:09:03.361Z,978.09
2022-12-04T12:09:33.810Z,978.09
2022-12-04T12:10:05.854Z,977.99
2022-12-04T12:10:38.850Z,977.99
2022-12-04T12:11:06.823Z,977.78
2022-12-04T12:11:37.449Z,977.78
2022-12-04T12:12:08.265Z,977.99
2022-12-04T12:12:39.427Z,977.99
2022-12-04T12:13:10.378Z,977.78
2022-12-04T12:13:40.854Z,977.78
2022-12-04T12:14:14.567Z,977.89
2022-12-04T12:14:54.636Z,977.99
2022-12-04T12:15:17.339Z,977.99
2022-12-04T12:15:46.156Z,977.99
2022-12-04T12:16:17.035Z,977.99
2022-12-04T12:16:50.070Z,977.99
2022-12-04T12:17:18.771Z,977.78
2022-12-04T12:17:49.215Z,977.99
2022-12-04T12:18:21.043Z,977.99
2022-12-04T12:18:50.784Z,977.99
2022-12-04T12:19:22.976Z,977.99
2022-12-04T12:19:54.947Z,977.78
2022-12-04T12:20:25.932Z,977.78
2022-12-04T12:20:56.413Z,977.99
2022-12-04T12:21:27.556Z,977.99
2022-12-04T12:22:00.743Z,977.89
2022-12-04T12:22:29.217Z,977.89
2022-12-04T12:22:58.737Z,977.78
2022-12-04T12:23:30.380Z,977.78
2022-12-04T12:24:01.343Z,977.89
2022-12-04T12:24:34.298Z,977.89
2022-12-04T12:25:04.045Z,977.89
2022-12-04T12:25:36.089Z,977.89
2022-12-04T12:26:05.844Z,977.68
2022-12-04T12:26:36.555Z,977.68
2022-12-04T12:27:07.682Z,977.68
2022-12-04T12:27:39.231Z,977.68
2022-12-04T12:28:08.673Z,977.89
2022-12-04T12:28:41.673Z,977.89
2022-12-04T12:29:11.212Z,977.61
2022-12-04T12:29:42.823Z,977.61
2022-12-04T12:30:15.844Z,977.89
2022-12-04T12:30:46.470Z,977.89
2022-12-04T12:31:16.022Z,977.68
2022-12-04T12:31:49.036Z,977.68
2022-12-04T12:32:19.069Z,977.78
2022-12-04T12:32:48.180Z,977.78
2022-12-04T12:33:19.872Z,977.99
2022-12-04T12:33:50.842Z,977.78
2022-12-04T12:34:20.523Z,977.78
2022-12-04T12:34:52.317Z,977.78
2022-12-04T12:35:22.533Z,977.78
2022-12-04T12:35:58.195Z,977.68
2022-12-04T12:36:27.312Z,977.68
2022-12-04T12:37:00.999Z,977.89
2022-12-04T12:37:28.056Z,977.89
2022-12-04T12:37:57.978Z,977.68
2022-12-04T12:38:59.277Z,978.09
2022-12-04T12:39:31.524Z,978.09
2022-12-04T12:40:02.283Z,977.99
2022-12-04T12:40:34.054Z,977.99
2022-12-04T12:41:03.366Z,977.89
2022-12-04T12:41:37.822Z,977.89
2022-12-04T12:42:19.930Z,977.89
2022-12-04T12:42:38.689Z,977.89
2022-12-04T12:43:09.894Z,977.89
2022-12-04T12:43:39.511Z,977.89
2022-12-04T12:44:10.159Z,977.78
2022-12-04T12:44:41.112Z,977.78
2022-12-04T12:45:15.441Z,977.78
2022-12-04T12:45:43.853Z,977.78
2022-12-04T12:46:15.103Z,977.61
2022-12-04T12:46:46.766Z,977.61
2022-12-04T12:47:17.529Z,977.89
2022-12-04T12:47:48.818Z,977.89
2022-12-04T12:48:18.902Z,977.78
2022-12-04T12:48:52.534Z,977.61
2022-12-04T12:49:20.831Z,977.61
2022-12-04T12:49:50.658Z,977.51
2022-12-04T12:50:23.214Z,977.51
2022-12-04T12:51:08.964Z,977.68
2022-12-04T12:51:30.667Z,977.68
2022-12-04T12:51:56.430Z,977.61
2022-12-04T12:52:27.674Z,977.61
2022-12-04T12:52:58.358Z,977.61
2022-12-04T12:53:30.213Z,977.61
2022-12-04T12:54:00.219Z,977.61
2022-12-04T12:54:31.963Z,977.61
2022-12-04T12:55:01.193Z,977.51
2022-12-04T12:56:03.525Z,977.51
2022-12-04T12:57:07.379Z,977.51
2022-12-04T12:57:54.659Z,977.61
2022-12-04T12:58:08.677Z,977.61
2022-12-04T12:58:39.687Z,977.61
2022-12-04T12:59:09.645Z,977.41
2022-12-04T12:59:41.338Z,977.41
2022-12-04T13:00:13.952Z,977.51
2022-12-04T13:01:00.231Z,977.41
2022-12-04T13:01:14.050Z,977.41
2022-12-04T13:01:43.978Z,977.41
2022-12-04T13:02:15.969Z,977.21
2022-12-04T13:02:48.232Z,977.21
2022-12-04T13:03:18.635Z,977.21
2022-12-04T13:03:49.337Z,977.21
2022-12-04T13:04:19.803Z,977.31
2022-12-04T13:04:50.902Z,977.11
2022-12-04T13:05:21.171Z,977.11
2022-12-04T13:05:53.823Z,977.31
2022-12-04T13:06:23.201Z,977.31
2022-12-04T13:06:56.425Z,977.31